QFA651 YSSY-YPPH
Flight info
| Callsign | QFA651 |
|---|---|
| Flight time | N/A |
| Altitude | 36000 |
| Route | KADOM H44 AD Q33 LOTGI/N0463F380 Q33 ESP Q158 PH |
| Aircraft | B38M/M-SDE1FGHILORVWXY/HB1 |
Departure
| Time | 2026-05-01 14:39 |
|---|---|
| Airport | Sydney Kingsford Smith International Airport (YSSY) |
Arrival
| Time | N/A |
|---|---|
| Airport | Perth International Airport (YPPH) |
| Time | Latitude | Longitude | Altitude | Speed | Heading |
|---|---|---|---|---|---|
| 2026-05-01 14:10 | -33.93861 | 151.16962 | 32 ft | 0 kts | 254° |
| 2026-05-01 14:21 | -33.93854 | 151.16991 | 32 ft | 4 kts | 251° |
| 2026-05-01 14:21 | -33.93844 | 151.17021 | 32 ft | 4 kts | 245° |
| 2026-05-01 14:22 | -33.93812 | 151.17066 | 32 ft | 4 kts | 185° |
| 2026-05-01 14:22 | -33.93805 | 151.17066 | 32 ft | 2 kts | 168° |
| 2026-05-01 14:28 | -33.93824 | 151.17071 | 32 ft | 7 kts | 168° |
| 2026-05-01 14:28 | -33.93883 | 151.17086 | 32 ft | 10 kts | 167° |
| 2026-05-01 14:28 | -33.93954 | 151.17106 | 32 ft | 11 kts | 160° |
| 2026-05-01 14:28 | -33.93981 | 151.17184 | 32 ft | 11 kts | 87° |
| 2026-05-01 14:29 | -33.94034 | 151.17242 | 31 ft | 12 kts | 166° |
| 2026-05-01 14:29 | -33.94121 | 151.17262 | 31 ft | 14 kts | 168° |
| 2026-05-01 14:30 | -33.94424 | 151.17341 | 33 ft | 16 kts | 168° |
| 2026-05-01 14:30 | -33.94518 | 151.17366 | 33 ft | 0 kts | 167° |
| 2026-05-01 14:31 | -33.94548 | 151.17374 | 33 ft | 4 kts | 167° |
| 2026-05-01 14:31 | -33.94591 | 151.17386 | 33 ft | 11 kts | 168° |
| 2026-05-01 14:31 | -33.94688 | 151.17410 | 33 ft | 16 kts | 168° |
| 2026-05-01 14:31 | -33.94790 | 151.17436 | 32 ft | 15 kts | 167° |
| 2026-05-01 14:32 | -33.94896 | 151.17464 | 32 ft | 16 kts | 168° |
| 2026-05-01 14:32 | -33.95010 | 151.17494 | 32 ft | 17 kts | 168° |
| 2026-05-01 14:32 | -33.95133 | 151.17526 | 32 ft | 19 kts | 168° |
| 2026-05-01 14:32 | -33.95265 | 151.17560 | 31 ft | 20 kts | 168° |
| 2026-05-01 14:33 | -33.95404 | 151.17595 | 32 ft | 21 kts | 168° |
| 2026-05-01 14:33 | -33.95550 | 151.17632 | 32 ft | 22 kts | 168° |
| 2026-05-01 14:33 | -33.95643 | 151.17658 | 32 ft | 12 kts | 166° |
| 2026-05-01 14:33 | -33.95726 | 151.17679 | 33 ft | 13 kts | 169° |
| 2026-05-01 14:34 | -33.95819 | 151.17702 | 32 ft | 14 kts | 165° |
| 2026-05-01 14:34 | -33.95918 | 151.17731 | 32 ft | 15 kts | 168° |
| 2026-05-01 14:34 | -33.96027 | 151.17758 | 33 ft | 16 kts | 168° |
| 2026-05-01 14:34 | -33.96142 | 151.17788 | 33 ft | 18 kts | 167° |
| 2026-05-01 14:35 | -33.96252 | 151.17816 | 32 ft | 15 kts | 168° |
| 2026-05-01 14:35 | -33.96357 | 151.17844 | 32 ft | 16 kts | 167° |
| 2026-05-01 14:35 | -33.96430 | 151.17893 | 32 ft | 12 kts | 117° |
| 2026-05-01 14:35 | -33.96432 | 151.17947 | 32 ft | 0 kts | 79° |
| 2026-05-01 14:36 | -33.96432 | 151.17948 | 32 ft | 1 kts | 79° |
| 2026-05-01 14:36 | -33.96430 | 151.17961 | 32 ft | 3 kts | 79° |
| 2026-05-01 14:36 | -33.96422 | 151.18005 | 32 ft | 7 kts | 76° |
| 2026-05-01 14:37 | -33.96384 | 151.18052 | 32 ft | 11 kts | 6° |
| 2026-05-01 14:37 | -33.96356 | 151.18047 | 32 ft | 0 kts | 347° |
| 2026-05-01 14:38 | -33.96353 | 151.18046 | 32 ft | 3 kts | 347° |
| 2026-05-01 14:38 | -33.96116 | 151.17984 | 29 ft | 73 kts | 348° |
| 2026-05-01 14:38 | -33.95397 | 151.17798 | 31 ft | 137 kts | 348° |
| 2026-05-01 14:38 | -33.94324 | 151.17488 | 226 ft | 171 kts | 344° |
| 2026-05-01 14:39 | -33.93106 | 151.17082 | 741 ft | 191 kts | 345° |
| 2026-05-01 14:39 | -33.91849 | 151.16719 | 1733 ft | 181 kts | 346° |
| 2026-05-01 14:39 | -33.90666 | 151.15987 | 2210 ft | 207 kts | 322° |
| 2026-05-01 14:39 | -33.89730 | 151.14500 | 2536 ft | 238 kts | 304° |
| 2026-05-01 14:40 | -33.88825 | 151.12748 | 3120 ft | 256 kts | 305° |
| 2026-05-01 14:40 | -33.87879 | 151.10872 | 3843 ft | 266 kts | 297° |
| 2026-05-01 14:40 | -33.87598 | 151.08676 | 4766 ft | 275 kts | 263° |
| 2026-05-01 14:40 | -33.88356 | 151.06537 | 5533 ft | 285 kts | 231° |
| 2026-05-01 14:41 | -33.89884 | 151.05011 | 6363 ft | 290 kts | 206° |
| 2026-05-01 14:41 | -33.91804 | 151.04238 | 7136 ft | 293 kts | 195° |
| 2026-05-01 14:41 | -33.93777 | 151.03485 | 7853 ft | 301 kts | 198° |
| 2026-05-01 14:41 | -33.95761 | 151.02695 | 8725 ft | 301 kts | 198° |
| 2026-05-01 14:42 | -33.97760 | 151.01908 | 9549 ft | 303 kts | 198° |
| 2026-05-01 14:42 | -33.99780 | 151.01115 | 10318 ft | 309 kts | 198° |
| 2026-05-01 14:42 | -34.01873 | 151.00279 | 10670 ft | 327 kts | 199° |
| 2026-05-01 14:42 | -34.04081 | 150.99388 | 11063 ft | 342 kts | 199° |
| 2026-05-01 14:43 | -34.06355 | 150.98473 | 11669 ft | 346 kts | 198° |
| 2026-05-01 14:43 | -34.08647 | 150.97569 | 12457 ft | 348 kts | 198° |
| 2026-05-01 14:43 | -34.10964 | 150.96659 | 13172 ft | 351 kts | 198° |
| 2026-05-01 14:43 | -34.13290 | 150.95750 | 13916 ft | 354 kts | 198° |
| 2026-05-01 14:44 | -34.15636 | 150.94833 | 14574 ft | 357 kts | 198° |
| 2026-05-01 14:44 | -34.19927 | 150.91891 | 15828 ft | 361 kts | 226° |
| 2026-05-01 14:44 | -34.21747 | 150.89763 | 16387 ft | 366 kts | 224° |
| 2026-05-01 14:45 | -34.23594 | 150.87679 | 17000 ft | 369 kts | 224° |
| 2026-05-01 14:45 | -34.27429 | 150.83406 | 18167 ft | 376 kts | 223° |
| 2026-05-01 14:45 | -34.29368 | 150.81259 | 18735 ft | 379 kts | 223° |
| 2026-05-01 14:46 | -34.31321 | 150.79096 | 19234 ft | 382 kts | 223° |
| 2026-05-01 14:46 | -34.35239 | 150.74757 | 20258 ft | 387 kts | 224° |
| 2026-05-01 14:46 | -34.37229 | 150.72551 | 20795 ft | 388 kts | 224° |
| 2026-05-01 14:47 | -34.39230 | 150.70331 | 21301 ft | 391 kts | 224° |
| 2026-05-01 14:47 | -34.41240 | 150.68100 | 21745 ft | 394 kts | 224° |
| 2026-05-01 14:47 | -34.43263 | 150.65853 | 22190 ft | 396 kts | 224° |
| 2026-05-01 14:48 | -34.47359 | 150.61300 | 23072 ft | 402 kts | 224° |
| 2026-05-01 14:48 | -34.49428 | 150.58996 | 23519 ft | 405 kts | 225° |
| 2026-05-01 14:48 | -34.53598 | 150.54350 | 24316 ft | 410 kts | 225° |
| 2026-05-01 14:49 | -34.57808 | 150.49652 | 25094 ft | 413 kts | 224° |
| 2026-05-01 14:49 | -34.62047 | 150.44914 | 25841 ft | 416 kts | 224° |
| 2026-05-01 14:50 | -34.64898 | 150.41723 | 26322 ft | 418 kts | 224° |
| 2026-05-01 14:50 | -34.70607 | 150.35325 | 27290 ft | 422 kts | 224° |
| 2026-05-01 14:51 | -34.72771 | 150.32897 | 27634 ft | 423 kts | 224° |
| 2026-05-01 14:51 | -34.77109 | 150.28023 | 28313 ft | 426 kts | 224° |
| 2026-05-01 14:52 | -34.81480 | 150.23105 | 28971 ft | 429 kts | 224° |
| 2026-05-01 14:52 | -34.83677 | 150.20631 | 29273 ft | 431 kts | 224° |
| 2026-05-01 14:52 | -34.88081 | 150.15663 | 29901 ft | 434 kts | 224° |
| 2026-05-01 14:53 | -34.90302 | 150.13156 | 30193 ft | 436 kts | 224° |
| 2026-05-01 14:53 | -34.92528 | 150.10641 | 30462 ft | 437 kts | 224° |
| 2026-05-01 14:53 | -34.94764 | 150.08112 | 30710 ft | 439 kts | 224° |
| 2026-05-01 14:53 | -34.97005 | 150.05575 | 30983 ft | 440 kts | 225° |
| 2026-05-01 14:54 | -34.99247 | 150.03036 | 31218 ft | 441 kts | 225° |
| 2026-05-01 14:54 | -35.01496 | 150.00487 | 31439 ft | 442 kts | 225° |
| 2026-05-01 14:54 | -35.03750 | 149.97930 | 31690 ft | 443 kts | 225° |
| 2026-05-01 14:54 | -35.05887 | 149.95233 | 31909 ft | 442 kts | 235° |
| 2026-05-01 14:55 | -35.07663 | 149.92180 | 32191 ft | 441 kts | 236° |
| 2026-05-01 14:55 | -35.09467 | 149.89154 | 32474 ft | 440 kts | 236° |
| 2026-05-01 14:55 | -35.11255 | 149.86132 | 32755 ft | 440 kts | 236° |
| 2026-05-01 14:55 | -35.13034 | 149.83112 | 33044 ft | 439 kts | 236° |
| 2026-05-01 14:56 | -35.14815 | 149.80085 | 33359 ft | 438 kts | 236° |
| 2026-05-01 14:56 | -35.16585 | 149.77072 | 33671 ft | 436 kts | 236° |
| 2026-05-01 14:56 | -35.18354 | 149.74058 | 33980 ft | 435 kts | 236° |
| 2026-05-01 14:56 | -35.20110 | 149.71063 | 34287 ft | 433 kts | 237° |
| 2026-05-01 14:57 | -35.21862 | 149.68074 | 34552 ft | 432 kts | 237° |
| 2026-05-01 14:57 | -35.25355 | 149.62105 | 34951 ft | 432 kts | 237° |
| 2026-05-01 14:57 | -35.27103 | 149.59114 | 35135 ft | 432 kts | 237° |
| 2026-05-01 14:58 | -35.28848 | 149.56126 | 35255 ft | 434 kts | 237° |
| 2026-05-01 14:58 | -35.30605 | 149.53115 | 35402 ft | 434 kts | 237° |
| 2026-05-01 14:58 | -35.31768 | 149.51121 | 35521 ft | 434 kts | 237° |
| 2026-05-01 14:58 | -35.33522 | 149.48110 | 35692 ft | 435 kts | 237° |
| 2026-05-01 14:59 | -35.35844 | 149.44121 | 35908 ft | 435 kts | 237° |
| 2026-05-01 14:59 | -35.37597 | 149.41107 | 36063 ft | 435 kts | 237° |
| 2026-05-01 14:59 | -35.39352 | 149.38086 | 36213 ft | 435 kts | 237° |
| 2026-05-01 14:59 | -35.41106 | 149.35065 | 36348 ft | 435 kts | 237° |
| 2026-05-01 15:00 | -35.45794 | 149.26976 | 36379 ft | 435 kts | 237° |
| 2026-05-01 15:01 | -35.49268 | 149.20970 | 36387 ft | 434 kts | 237° |
| 2026-05-01 15:01 | -35.52781 | 149.14885 | 36370 ft | 435 kts | 237° |
| 2026-05-01 15:02 | -35.56240 | 149.08885 | 36376 ft | 435 kts | 237° |
| 2026-05-01 15:02 | -35.59735 | 149.02810 | 36377 ft | 435 kts | 237° |
| 2026-05-01 15:03 | -35.63186 | 148.96685 | 36384 ft | 435 kts | 240° |
| 2026-05-01 15:03 | -35.66423 | 148.90402 | 36383 ft | 436 kts | 240° |
| 2026-05-01 15:04 | -35.69687 | 148.84126 | 36320 ft | 436 kts | 240° |
| 2026-05-01 15:04 | -35.72952 | 148.77847 | 36399 ft | 436 kts | 240° |
| 2026-05-01 15:05 | -35.76216 | 148.71558 | 36383 ft | 436 kts | 240° |
| 2026-05-01 15:05 | -35.79477 | 148.65265 | 36385 ft | 437 kts | 240° |
| 2026-05-01 15:06 | -35.82746 | 148.58943 | 36392 ft | 437 kts | 240° |
| 2026-05-01 15:06 | -35.86007 | 148.52625 | 36392 ft | 437 kts | 240° |
| 2026-05-01 15:07 | -35.89269 | 148.46295 | 36383 ft | 437 kts | 240° |
| 2026-05-01 15:07 | -35.92530 | 148.39955 | 36378 ft | 438 kts | 240° |
| 2026-05-01 15:08 | -35.95767 | 148.33649 | 36358 ft | 438 kts | 240° |
| 2026-05-01 15:08 | -35.99025 | 148.27290 | 36363 ft | 438 kts | 240° |
| 2026-05-01 15:09 | -36.02279 | 148.20928 | 36349 ft | 438 kts | 241° |
| 2026-05-01 15:09 | -36.05530 | 148.14559 | 36344 ft | 439 kts | 241° |
| 2026-05-01 15:10 | -36.08786 | 148.08170 | 36337 ft | 439 kts | 241° |
| 2026-05-01 15:10 | -36.13660 | 147.98581 | 36325 ft | 439 kts | 241° |
| 2026-05-01 15:11 | -36.18524 | 147.88987 | 36327 ft | 439 kts | 241° |
| 2026-05-01 15:12 | -36.21760 | 147.82589 | 36322 ft | 438 kts | 241° |
| 2026-05-01 15:12 | -36.26608 | 147.72980 | 36317 ft | 439 kts | 241° |
| 2026-05-01 15:14 | -36.34674 | 147.56934 | 36309 ft | 438 kts | 242° |
| 2026-05-01 15:14 | -36.39492 | 147.47311 | 36315 ft | 439 kts | 242° |
| 2026-05-01 15:15 | -36.45925 | 147.34423 | 36322 ft | 438 kts | 242° |
| 2026-05-01 15:16 | -36.52321 | 147.21559 | 36316 ft | 438 kts | 242° |
| 2026-05-01 15:18 | -36.60289 | 147.05462 | 36291 ft | 437 kts | 242° |
| 2026-05-01 15:19 | -36.66655 | 146.92550 | 36305 ft | 438 kts | 242° |
| 2026-05-01 15:19 | -36.70948 | 146.82600 | 36278 ft | 428 kts | 261° |
| 2026-05-01 15:20 | -36.71226 | 146.75304 | 36293 ft | 423 kts | 274° |
| 2026-05-01 15:20 | -36.71134 | 146.71637 | 36295 ft | 424 kts | 274° |
| 2026-05-01 15:21 | -36.70960 | 146.64288 | 36280 ft | 424 kts | 274° |
| 2026-05-01 15:21 | -36.70785 | 146.56951 | 36298 ft | 424 kts | 274° |
| 2026-05-01 15:22 | -36.70514 | 146.45931 | 36272 ft | 425 kts | 274° |
| 2026-05-01 15:22 | -36.70328 | 146.38583 | 36267 ft | 424 kts | 274° |
| 2026-05-01 15:23 | -36.70137 | 146.31222 | 36271 ft | 425 kts | 274° |
| 2026-05-01 15:23 | -36.69942 | 146.23885 | 36261 ft | 423 kts | 274° |
| 2026-05-01 15:24 | -36.69743 | 146.16571 | 36252 ft | 423 kts | 275° |
| 2026-05-01 15:24 | -36.69539 | 146.09239 | 36246 ft | 423 kts | 275° |
| 2026-05-01 15:25 | -36.69331 | 146.01912 | 36248 ft | 423 kts | 275° |
| 2026-05-01 15:25 | -36.69118 | 145.94598 | 36235 ft | 422 kts | 275° |
| 2026-05-01 15:26 | -36.68902 | 145.87298 | 36246 ft | 422 kts | 275° |
| 2026-05-01 15:26 | -36.68680 | 145.79987 | 36231 ft | 422 kts | 275° |
| 2026-05-01 15:27 | -36.68455 | 145.72688 | 36225 ft | 421 kts | 275° |
| 2026-05-01 15:28 | -36.68110 | 145.61798 | 36219 ft | 421 kts | 275° |
| 2026-05-01 15:28 | -36.67874 | 145.54507 | 36209 ft | 421 kts | 275° |
| 2026-05-01 15:29 | -36.67512 | 145.43590 | 36202 ft | 420 kts | 275° |
| 2026-05-01 15:30 | -36.67015 | 145.29068 | 36205 ft | 420 kts | 275° |
| 2026-05-01 15:31 | -36.66238 | 145.07340 | 36192 ft | 419 kts | 276° |
| 2026-05-01 15:32 | -36.65698 | 144.92864 | 36190 ft | 418 kts | 276° |
| 2026-05-01 15:34 | -36.64856 | 144.71156 | 36184 ft | 419 kts | 276° |